Terminal Aerodrome Forecast
Issued by NWS

Home | Current Version | Previous Version | Text Only | Print | Product List | Glossary On
Versions: 1 2 3 4 5 6 7 8 9 10 11 12 13 14 15 16 17 18 19 20 21 22 23 24 25
000
FTAK31 PANC 040530
TAFADQ
TAF
PADQ 040530Z 0406/0506 08008KT P6SM FEW020 SCT200
      TEMPO 0406/0408 BKN020
     FM040800 07009KT P6SM BKN020
     FM041200 07010KT 5SM -RA BR SCT008 OVC012
     FM042000 10007KT P6SM SCT010 BKN015
     FM050300 05005KT P6SM -RA OVC008=

USA.gov is the U.S. government's official web portal to all federal, state and local government web resources and services.